createdAt,value
2022-08-19T00:02:26.004Z,21.60
2022-08-19T00:04:56.425Z,21.50
2022-08-19T00:07:28.411Z,21.30
2022-08-19T00:09:59.361Z,21.20
2022-08-19T00:12:30.060Z,21.10
2022-08-19T00:15:00.537Z,21.00
2022-08-19T00:17:30.948Z,21.00
2022-08-19T00:20:01.843Z,20.90
2022-08-19T00:22:34.881Z,20.80
2022-08-19T00:25:05.575Z,20.80
2022-08-19T00:27:38.086Z,20.80
2022-08-19T00:30:12.029Z,20.80
2022-08-19T00:32:42.763Z,20.70
2022-08-19T00:35:13.629Z,20.70
2022-08-19T00:37:46.535Z,20.60
2022-08-19T00:40:17.355Z,20.60
2022-08-19T00:42:48.125Z,20.60
2022-08-19T00:45:20.647Z,20.60
2022-08-19T00:47:50.970Z,20.60
2022-08-19T00:50:24.689Z,20.50
2022-08-19T00:52:56.795Z,20.40
2022-08-19T00:55:31.554Z,20.30
2022-08-19T00:58:06.614Z,20.20
2022-08-19T01:00:37.131Z,20.20
2022-08-19T01:03:10.633Z,20.10
2022-08-19T01:05:42.906Z,20.10
2022-08-19T01:08:15.513Z,20.00
2022-08-19T01:10:49.683Z,19.90
2022-08-19T01:13:22.444Z,19.80
2022-08-19T01:15:58.626Z,19.80
2022-08-19T01:18:31.799Z,19.70
2022-08-19T01:21:09.429Z,19.60
2022-08-19T01:23:50.714Z,19.60
2022-08-19T01:26:24.737Z,19.50
2022-08-19T01:29:00.716Z,19.40
2022-08-19T01:31:34.385Z,19.40
2022-08-19T01:34:05.470Z,19.30
2022-08-19T01:36:39.373Z,19.40
2022-08-19T01:39:14.579Z,19.40
2022-08-19T01:41:45.758Z,19.40
2022-08-19T01:44:18.345Z,19.40
2022-08-19T01:46:52.121Z,19.40
2022-08-19T01:49:24.684Z,19.40
2022-08-19T01:51:55.475Z,19.30
2022-08-19T01:54:28.149Z,19.20
2022-08-19T01:57:03.527Z,19.10
2022-08-19T01:59:35.338Z,19.00
2022-08-19T02:02:08.539Z,18.80
2022-08-19T02:04:40.174Z,18.70
2022-08-19T02:07:11.228Z,18.60
2022-08-19T02:09:43.310Z,18.40
2022-08-19T02:12:13.776Z,18.30
2022-08-19T02:14:48.797Z,18.20
2022-08-19T02:17:19.959Z,18.10
2022-08-19T02:19:50.709Z,17.90
2022-08-19T02:22:21.630Z,17.70
2022-08-19T02:24:53.379Z,17.70
2022-08-19T02:27:23.682Z,17.60
2022-08-19T02:29:55.024Z,17.60
2022-08-19T02:32:25.402Z,17.50
2022-08-19T02:34:55.697Z,17.40
2022-08-19T02:37:43.047Z,17.30
2022-08-19T02:40:15.367Z,17.20
2022-08-19T02:42:45.469Z,17.20
2022-08-19T02:45:16.261Z,17.10
2022-08-19T02:47:46.773Z,17.00
2022-08-19T02:50:17.103Z,17.00
2022-08-19T02:52:47.355Z,17.00
2022-08-19T02:55:19.387Z,17.00
2022-08-19T02:57:49.598Z,16.90
2022-08-19T03:00:19.832Z,16.80
2022-08-19T03:02:50.362Z,16.80
2022-08-19T03:05:20.622Z,16.70
2022-08-19T03:08:13.890Z,16.70
2022-08-19T03:10:47.880Z,16.70
2022-08-19T03:13:19.481Z,16.70
2022-08-19T03:15:51.260Z,16.60
2022-08-19T03:18:23.173Z,16.60
2022-08-19T03:20:56.145Z,16.60
2022-08-19T03:23:27.375Z,16.60
2022-08-19T03:26:16.183Z,16.60
2022-08-19T03:28:57.709Z,16.60
2022-08-19T03:31:44.795Z,16.60
2022-08-19T03:34:23.113Z,16.50
2022-08-19T03:36:53.357Z,16.40
2022-08-19T03:39:23.777Z,16.40
2022-08-19T03:42:31.844Z,16.40
2022-08-19T03:44:48.979Z,16.40
2022-08-19T03:47:19.219Z,16.30
2022-08-19T03:49:49.473Z,16.20
2022-08-19T03:52:19.712Z,16.10
2022-08-19T03:54:49.781Z,16.10
2022-08-19T03:57:21.426Z,16.00
2022-08-19T03:59:55.377Z,16.00
2022-08-19T04:02:34.400Z,16.00
2022-08-19T04:05:04.629Z,15.90
2022-08-19T04:07:34.634Z,15.90
2022-08-19T04:10:05.068Z,15.90
2022-08-19T04:12:37.508Z,15.80
2022-08-19T04:15:08.222Z,15.80
2022-08-19T04:17:38.591Z,15.80
2022-08-19T04:20:09.425Z,15.80
2022-08-19T04:22:39.836Z,15.70
2022-08-19T04:25:10.413Z,15.70
2022-08-19T04:27:48.174Z,15.70
2022-08-19T04:30:19.753Z,15.70
2022-08-19T04:32:49.790Z,15.60
2022-08-19T04:35:23.161Z,15.60
2022-08-19T04:37:55.236Z,15.50
2022-08-19T04:40:42.334Z,15.50
2022-08-19T04:43:17.132Z,15.50
2022-08-19T04:45:47.977Z,15.40
2022-08-19T04:48:26.188Z,15.40
2022-08-19T04:50:59.413Z,15.40
2022-08-19T04:53:37.694Z,15.30
2022-08-19T04:56:11.400Z,15.30
2022-08-19T04:58:45.007Z,15.30
2022-08-19T05:01:16.760Z,15.30
2022-08-19T05:03:47.113Z,15.30
2022-08-19T05:06:19.518Z,15.30
2022-08-19T05:08:50.409Z,15.30
2022-08-19T05:11:26.384Z,15.30
2022-08-19T05:13:59.307Z,15.30
2022-08-19T05:16:30.630Z,15.20
2022-08-19T05:19:17.892Z,15.10
2022-08-19T05:22:05.505Z,15.00
2022-08-19T05:24:41.340Z,15.00
2022-08-19T05:27:21.646Z,15.00
2022-08-19T05:29:53.243Z,14.90
2022-08-19T05:32:23.366Z,14.90
2022-08-19T05:34:53.412Z,14.90
2022-08-19T05:37:23.862Z,14.80
2022-08-19T05:39:53.902Z,14.80
2022-08-19T05:42:24.843Z,14.80
2022-08-19T05:44:57.650Z,14.70
2022-08-19T05:47:28.003Z,14.70
2022-08-19T05:49:58.145Z,14.80
2022-08-19T05:52:29.914Z,14.70
2022-08-19T05:55:01.310Z,14.70
2022-08-19T05:57:32.099Z,14.60
2022-08-19T06:00:09.401Z,14.60
2022-08-19T06:02:39.621Z,14.50
2022-08-19T06:05:11.297Z,14.50
2022-08-19T06:07:42.506Z,14.40
2022-08-19T06:10:14.499Z,14.40
2022-08-19T06:12:44.618Z,14.40
2022-08-19T06:15:17.675Z,14.30
2022-08-19T06:17:48.076Z,14.30
2022-08-19T06:20:39.754Z,14.30
2022-08-19T06:23:10.409Z,14.30
2022-08-19T06:25:46.270Z,14.30
2022-08-19T06:28:16.786Z,14.30
2022-08-19T06:30:48.955Z,14.30
2022-08-19T06:33:19.035Z,14.20
2022-08-19T06:35:49.343Z,14.10
2022-08-19T06:38:19.855Z,14.10
2022-08-19T06:40:49.889Z,14.10
2022-08-19T06:43:19.961Z,14.10
2022-08-19T06:45:54.016Z,14.10
2022-08-19T06:48:24.241Z,14.20
2022-08-19T06:50:56.299Z,14.10
2022-08-19T06:53:26.399Z,14.00
2022-08-19T06:56:01.817Z,14.00
2022-08-19T06:58:35.011Z,14.00
2022-08-19T07:01:09.213Z,13.90
2022-08-19T07:03:40.887Z,13.80
2022-08-19T07:06:26.646Z,13.80
2022-08-19T07:09:03.742Z,13.80
2022-08-19T07:11:34.254Z,13.80
2022-08-19T07:14:04.836Z,13.80
2022-08-19T07:16:37.352Z,13.70
2022-08-19T07:19:15.716Z,13.70
2022-08-19T07:21:46.488Z,13.60
2022-08-19T07:24:16.955Z,13.70
2022-08-19T07:26:51.586Z,13.70
2022-08-19T07:29:25.837Z,13.80
2022-08-19T07:32:00.957Z,13.70
2022-08-19T07:34:32.620Z,13.70
2022-08-19T07:37:02.638Z,13.60
2022-08-19T07:39:35.560Z,13.60
2022-08-19T07:42:09.430Z,13.60
2022-08-19T07:47:47.882Z,13.40
2022-08-19T07:50:02.387Z,13.40
2022-08-19T07:52:32.602Z,13.40
2022-08-19T07:55:05.433Z,13.30
2022-08-19T07:57:35.559Z,13.40
2022-08-19T08:00:07.193Z,13.30
2022-08-19T08:02:39.664Z,13.30
2022-08-19T08:05:27.165Z,13.30
2022-08-19T08:08:14.163Z,13.20
2022-08-19T08:10:44.423Z,13.20
2022-08-19T08:13:23.029Z,13.20
2022-08-19T08:15:53.315Z,13.10
2022-08-19T08:18:30.302Z,13.10
2022-08-19T08:21:02.485Z,13.10
2022-08-19T08:23:33.177Z,13.00
2022-08-19T08:26:03.992Z,13.00
2022-08-19T08:28:34.264Z,13.00
2022-08-19T08:31:09.673Z,12.90
2022-08-19T08:33:43.373Z,12.90
2022-08-19T08:36:14.955Z,12.90
2022-08-19T08:38:46.989Z,12.90
2022-08-19T08:41:25.967Z,12.80
2022-08-19T08:43:57.041Z,13.00
2022-08-19T08:46:33.581Z,13.20
2022-08-19T08:49:13.671Z,13.20
2022-08-19T08:51:59.255Z,13.30
2022-08-19T08:54:35.591Z,13.30
2022-08-19T08:57:09.827Z,13.30
2022-08-19T08:59:42.975Z,13.30
2022-08-19T09:02:13.431Z,13.20
2022-08-19T09:04:45.183Z,13.20
2022-08-19T09:07:34.977Z,13.10
2022-08-19T09:10:13.514Z,13.10
2022-08-19T09:12:51.665Z,13.10
2022-08-19T09:15:29.113Z,13.10
2022-08-19T09:18:07.127Z,13.10
2022-08-19T09:20:41.335Z,13.10
2022-08-19T09:23:13.917Z,13.20
2022-08-19T09:25:44.120Z,13.20
2022-08-19T09:28:22.046Z,13.20
2022-08-19T09:30:54.978Z,13.20
2022-08-19T09:33:25.295Z,13.20
2022-08-19T09:36:08.600Z,13.20
2022-08-19T09:38:43.575Z,13.20
2022-08-19T09:41:16.896Z,13.20
2022-08-19T09:43:51.159Z,13.20
2022-08-19T09:46:24.000Z,13.10
2022-08-19T09:48:54.835Z,13.10
2022-08-19T09:51:29.991Z,13.00
2022-08-19T09:54:04.907Z,13.00
2022-08-19T09:56:35.632Z,13.00
2022-08-19T09:59:07.185Z,13.00
2022-08-19T10:01:37.299Z,12.90
2022-08-19T10:04:19.718Z,12.90
2022-08-19T10:06:53.603Z,12.90
2022-08-19T10:09:26.279Z,12.90
2022-08-19T10:12:04.962Z,13.00
2022-08-19T10:14:36.502Z,13.10
2022-08-19T10:17:19.859Z,13.10
2022-08-19T10:19:55.298Z,13.10
2022-08-19T10:22:27.954Z,13.00
2022-08-19T10:24:58.147Z,12.90
2022-08-19T10:27:28.612Z,12.80
2022-08-19T10:30:02.901Z,12.80
2022-08-19T10:32:34.437Z,12.80
2022-08-19T10:35:07.537Z,12.80
2022-08-19T10:37:44.946Z,12.70
2022-08-19T10:40:28.395Z,12.80
2022-08-19T10:42:59.068Z,12.80
2022-08-19T10:45:29.187Z,12.90
2022-08-19T10:47:59.990Z,13.00
2022-08-19T10:50:47.179Z,13.00
2022-08-19T10:53:19.540Z,13.00
2022-08-19T10:56:07.472Z,13.00
2022-08-19T10:58:37.599Z,13.00
2022-08-19T11:01:07.185Z,13.00
2022-08-19T11:03:36.689Z,13.20
2022-08-19T11:06:07.605Z,13.30
2022-08-19T11:08:39.155Z,13.40
2022-08-19T11:11:09.456Z,13.50
2022-08-19T11:13:39.665Z,13.60
2022-08-19T11:16:10.172Z,13.70
2022-08-19T11:18:40.472Z,13.70
2022-08-19T11:21:18.590Z,13.80
2022-08-19T11:23:53.747Z,14.00
2022-08-19T11:26:24.421Z,14.10
2022-08-19T11:28:55.802Z,14.20
2022-08-19T11:31:29.146Z,14.30
2022-08-19T11:34:01.316Z,14.50
2022-08-19T11:36:32.971Z,14.70
2022-08-19T11:39:05.832Z,14.80
2022-08-19T11:41:36.424Z,15.00
2022-08-19T11:44:09.262Z,15.10
2022-08-19T11:46:40.651Z,15.30
2022-08-19T11:49:13.999Z,15.40
2022-08-19T11:51:45.129Z,15.50
2022-08-19T11:54:17.726Z,15.70
2022-08-19T11:56:50.735Z,15.80
2022-08-19T11:59:20.699Z,16.00
2022-08-19T12:01:50.900Z,15.90
2022-08-19T12:04:20.881Z,16.30
2022-08-19T12:06:51.654Z,16.50
2022-08-19T12:11:57.906Z,16.60
2022-08-19T12:14:29.540Z,16.70
2022-08-19T12:16:59.692Z,16.70
2022-08-19T12:19:29.976Z,16.70
2022-08-19T12:22:04.806Z,16.80
2022-08-19T12:24:34.551Z,16.80
2022-08-19T12:27:06.156Z,16.90
2022-08-19T12:29:43.182Z,17.00
2022-08-19T12:32:13.080Z,17.10
2022-08-19T12:34:43.049Z,17.20
2022-08-19T12:37:12.603Z,17.20
2022-08-19T12:39:43.466Z,17.30
2022-08-19T12:42:15.333Z,17.40
2022-08-19T12:44:45.402Z,17.60
2022-08-19T12:47:16.597Z,17.80
2022-08-19T12:49:54.093Z,18.00
2022-08-19T12:52:25.913Z,18.10
2022-08-19T12:54:56.854Z,18.30
2022-08-19T12:57:32.925Z,18.40
2022-08-19T13:00:05.106Z,18.60
2022-08-19T13:02:38.298Z,18.70
2022-08-19T13:05:10.242Z,18.90
2022-08-19T13:07:40.137Z,19.10
2022-08-19T13:10:10.759Z,19.20
2022-08-19T13:12:42.931Z,19.40
2022-08-19T13:15:15.187Z,19.60
2022-08-19T13:17:44.816Z,19.70
2022-08-19T13:20:22.234Z,19.80
2022-08-19T13:22:52.692Z,20.00
2022-08-19T13:25:22.860Z,20.10
2022-08-19T13:27:54.254Z,20.20
2022-08-19T13:30:41.412Z,20.30
2022-08-19T13:33:16.267Z,20.50
2022-08-19T13:35:47.677Z,20.60
2022-08-19T13:38:18.059Z,20.80
2022-08-19T13:40:48.051Z,20.90
2022-08-19T13:43:22.951Z,21.00
2022-08-19T13:45:54.205Z,21.10
2022-08-19T13:48:23.703Z,21.30
2022-08-19T13:50:53.310Z,21.40
2022-08-19T13:53:23.081Z,21.50
2022-08-19T13:55:55.150Z,21.60
2022-08-19T13:58:26.525Z,21.70
2022-08-19T14:00:56.400Z,21.80
2022-08-19T14:03:26.278Z,21.80
2022-08-19T14:05:56.422Z,21.90
2022-08-19T14:08:26.469Z,21.90
2022-08-19T14:10:56.340Z,22.00
2022-08-19T14:13:27.830Z,22.10
2022-08-19T14:15:57.480Z,22.20
2022-08-19T14:18:29.289Z,22.30
2022-08-19T14:21:00.671Z,22.30
2022-08-19T14:23:30.128Z,22.50
2022-08-19T14:26:06.544Z,22.60
2022-08-19T14:28:37.859Z,22.70
2022-08-19T14:31:07.677Z,22.90
2022-08-19T14:33:37.182Z,22.90
2022-08-19T14:36:07.478Z,23.10
2022-08-19T14:38:38.127Z,23.10
2022-08-19T14:41:11.763Z,23.20
2022-08-19T14:43:43.175Z,23.30
2022-08-19T14:46:14.283Z,23.30
2022-08-19T14:48:46.729Z,23.40
2022-08-19T14:51:20.816Z,23.50
2022-08-19T14:53:52.148Z,23.60
2022-08-19T14:56:23.634Z,23.60
2022-08-19T14:58:55.299Z,23.70
2022-08-19T15:01:25.399Z,23.80
2022-08-19T15:03:56.291Z,23.90
2022-08-19T15:06:26.315Z,24.10
2022-08-19T15:08:58.643Z,24.20
2022-08-19T15:11:33.958Z,24.30
2022-08-19T15:14:07.051Z,24.40
2022-08-19T15:16:37.555Z,24.50
2022-08-19T15:19:07.511Z,24.60
2022-08-19T15:21:37.952Z,24.70
2022-08-19T15:24:08.248Z,24.90
2022-08-19T15:26:38.023Z,25.00
2022-08-19T15:29:09.453Z,25.20
2022-08-19T15:31:39.006Z,25.30
2022-08-19T15:34:09.605Z,25.40
2022-08-19T15:36:39.945Z,25.50
2022-08-19T15:39:10.970Z,25.60
2022-08-19T15:41:41.700Z,25.60
2022-08-19T15:44:14.126Z,25.70
2022-08-19T15:46:44.992Z,25.80
2022-08-19T15:49:15.401Z,25.80
2022-08-19T15:51:47.511Z,25.90
2022-08-19T15:54:18.516Z,25.90
2022-08-19T15:57:08.801Z,26.00
2022-08-19T16:00:00.755Z,26.10
2022-08-19T16:02:49.279Z,26.20
2022-08-19T16:05:41.094Z,26.30
2022-08-19T16:08:11.299Z,26.40
2022-08-19T16:10:41.907Z,26.50
2022-08-19T16:13:11.639Z,26.60
2022-08-19T16:15:45.106Z,26.70
2022-08-19T16:18:14.592Z,26.70
2022-08-19T16:20:45.035Z,26.80
2022-08-19T16:23:14.628Z,27.10
2022-08-19T16:25:44.510Z,27.10
2022-08-19T16:28:13.968Z,27.20
2022-08-19T16:30:48.409Z,27.30
2022-08-19T16:33:23.243Z,27.40
2022-08-19T16:35:56.096Z,27.30
2022-08-19T16:38:30.082Z,27.40
2022-08-19T16:41:01.282Z,27.40
2022-08-19T16:43:31.983Z,27.40
2022-08-19T16:46:03.186Z,27.60
2022-08-19T16:48:33.737Z,27.70
2022-08-19T16:51:03.625Z,27.80
2022-08-19T16:53:33.162Z,28.10
2022-08-19T16:56:02.791Z,28.20
2022-08-19T16:58:34.812Z,28.40
2022-08-19T17:01:07.360Z,28.60
2022-08-19T17:03:40.721Z,28.70
2022-08-19T17:06:18.257Z,28.90
2022-08-19T17:08:50.839Z,29.00
2022-08-19T17:11:21.800Z,29.40
2022-08-19T17:13:52.323Z,29.50
2022-08-19T17:16:25.435Z,29.70
2022-08-19T17:18:55.022Z,30.00
2022-08-19T17:21:26.104Z,30.30
2022-08-19T17:23:56.118Z,30.40
2022-08-19T17:37:52.785Z,30.50
2022-08-19T17:40:23.782Z,31.00
2022-08-19T17:42:55.086Z,31.40
2022-08-19T17:45:25.846Z,31.40
2022-08-19T17:47:56.334Z,31.30
2022-08-19T17:50:26.491Z,31.40
2022-08-19T17:52:57.762Z,31.40
2022-08-19T17:55:27.466Z,31.50
2022-08-19T17:57:58.115Z,31.80
2022-08-19T18:00:28.209Z,32.00
2022-08-19T18:02:59.467Z,31.90
2022-08-19T18:05:33.003Z,32.20
2022-08-19T18:08:09.889Z,32.30
2022-08-19T18:10:40.004Z,32.30
2022-08-19T18:13:16.976Z,32.40
2022-08-19T18:15:48.100Z,32.70
2022-08-19T18:18:18.035Z,32.40
2022-08-19T18:20:48.199Z,32.60
2022-08-19T18:23:45.370Z,32.70
2022-08-19T18:26:09.321Z,31.90
2022-08-19T18:28:49.592Z,31.40
2022-08-19T18:31:19.766Z,30.90
2022-08-19T18:33:53.097Z,30.70
2022-08-19T18:36:43.596Z,30.20
2022-08-19T18:39:31.329Z,30.20
2022-08-19T18:42:18.118Z,30.60
2022-08-19T18:45:04.923Z,30.60
2022-08-19T18:47:51.335Z,30.80
2022-08-19T18:50:20.977Z,31.10
2022-08-19T18:52:50.533Z,31.60
2022-08-19T18:55:24.122Z,31.90
2022-08-19T18:57:54.330Z,32.30
2022-08-19T19:00:24.098Z,31.30
2022-08-19T19:02:55.306Z,31.30
2022-08-19T19:05:25.183Z,31.70
2022-08-19T19:07:55.392Z,31.90
2022-08-19T19:10:26.746Z,32.20
2022-08-19T19:12:56.442Z,32.20
2022-08-19T19:15:26.248Z,32.50
2022-08-19T19:17:56.343Z,32.60
2022-08-19T19:20:35.270Z,32.70
2022-08-19T19:23:06.379Z,32.50
2022-08-19T19:25:50.730Z,32.40
2022-08-19T19:28:28.066Z,32.50
2022-08-19T19:30:59.829Z,32.60
2022-08-19T19:33:30.020Z,32.80
2022-08-19T19:36:00.210Z,32.90
2022-08-19T19:38:29.750Z,32.80
2022-08-19T19:41:01.161Z,32.80
2022-08-19T19:43:34.820Z,32.80
2022-08-19T19:46:10.783Z,32.50
2022-08-19T19:48:40.361Z,32.70
2022-08-19T19:51:10.253Z,32.60
2022-08-19T19:53:40.333Z,32.50
2022-08-19T19:56:12.060Z,32.40
2022-08-19T19:58:42.399Z,32.40
2022-08-19T20:01:13.483Z,32.70
2022-08-19T20:03:50.880Z,32.60
2022-08-19T20:06:20.699Z,32.60
2022-08-19T20:09:07.004Z,32.50
2022-08-19T20:11:40.370Z,32.50
2022-08-19T20:14:12.308Z,32.50
2022-08-19T20:16:44.182Z,32.40
2022-08-19T20:19:15.428Z,32.40
2022-08-19T20:21:48.516Z,32.60
2022-08-19T20:24:23.202Z,32.60
2022-08-19T20:26:55.784Z,32.80
2022-08-19T20:29:39.314Z,32.90
2022-08-19T20:32:11.518Z,32.60
2022-08-19T20:34:41.576Z,32.60
2022-08-19T20:37:11.527Z,32.80
2022-08-19T20:39:41.932Z,32.90
2022-08-19T20:42:33.164Z,32.70
2022-08-19T20:45:33.240Z,32.90
2022-08-19T20:48:03.894Z,32.90
2022-08-19T20:50:34.156Z,33.00
2022-08-19T20:53:06.179Z,33.20
2022-08-19T20:55:36.296Z,33.10
2022-08-19T20:58:05.852Z,33.00
2022-08-19T21:00:38.064Z,32.80
2022-08-19T21:03:09.024Z,32.80
2022-08-19T21:05:39.052Z,32.90
2022-08-19T21:08:09.916Z,33.00
2022-08-19T21:10:42.297Z,32.80
2022-08-19T21:13:12.901Z,32.90
2022-08-19T21:15:45.194Z,32.90
2022-08-19T21:18:15.709Z,32.80
2022-08-19T21:20:45.913Z,32.70
2022-08-19T21:23:17.154Z,32.40
2022-08-19T21:25:54.460Z,32.20
2022-08-19T21:28:34.596Z,32.00
2022-08-19T21:31:11.141Z,32.00
2022-08-19T21:33:41.486Z,31.90
2022-08-19T21:36:13.285Z,31.70
2022-08-19T21:38:43.016Z,31.80
2022-08-19T21:41:14.699Z,31.90
2022-08-19T21:43:44.361Z,31.90
2022-08-19T21:46:15.784Z,32.00
2022-08-19T21:48:45.361Z,32.00
2022-08-19T21:51:14.982Z,31.90
2022-08-19T21:53:46.569Z,31.80
2022-08-19T21:56:18.341Z,31.80
2022-08-19T21:58:48.120Z,31.70
2022-08-19T22:01:19.424Z,31.60
2022-08-19T22:03:49.134Z,31.50
2022-08-19T22:06:18.745Z,31.60
2022-08-19T22:08:48.460Z,31.90
2022-08-19T22:11:18.118Z,31.90
2022-08-19T22:13:47.878Z,32.00
2022-08-19T22:16:19.147Z,31.80
2022-08-19T22:18:48.811Z,31.80
2022-08-19T22:21:20.254Z,31.80
2022-08-19T22:24:09.703Z,31.70
2022-08-19T22:26:39.388Z,31.60
2022-08-19T22:29:08.978Z,31.50
2022-08-19T22:31:40.238Z,31.40
2022-08-19T22:34:10.369Z,31.30
2022-08-19T22:36:40.105Z,31.30
2022-08-19T22:39:10.551Z,31.30
2022-08-19T22:41:41.464Z,31.30
2022-08-19T22:44:12.030Z,31.20
2022-08-19T22:46:43.314Z,31.10
2022-08-19T22:49:12.978Z,31.10
2022-08-19T22:51:59.508Z,30.90
2022-08-19T22:54:29.130Z,30.90
2022-08-19T22:56:58.696Z,30.70
2022-08-19T22:59:28.321Z,30.50
2022-08-19T23:01:59.709Z,30.40
2022-08-19T23:04:29.545Z,30.10
2022-08-19T23:06:59.132Z,29.90
2022-08-19T23:09:31.518Z,29.70
2022-08-19T23:12:01.547Z,29.50
2022-08-19T23:14:31.463Z,29.30
2022-08-19T23:17:03.639Z,29.10
2022-08-19T23:19:33.834Z,28.80
2022-08-19T23:22:03.817Z,28.50
2022-08-19T23:24:36.739Z,28.20
2022-08-19T23:27:23.388Z,27.90
2022-08-19T23:30:11.688Z,27.70
2022-08-19T23:32:43.767Z,27.50
2022-08-19T23:35:16.474Z,27.10
2022-08-19T23:37:46.983Z,26.70
2022-08-19T23:40:17.893Z,26.40
2022-08-19T23:42:48.421Z,25.90
2022-08-19T23:45:23.700Z,25.50
2022-08-19T23:47:57.542Z,25.10
2022-08-19T23:50:29.459Z,24.80
2022-08-19T23:53:02.378Z,24.50
2022-08-19T23:55:35.623Z,24.20
2022-08-19T23:58:08.541Z,23.90
